Time;durP1;ratioP1;P1;durP2;ratioP2;P2;SDS_P1;SDS_P2;PMS_P1;PMS_P2;Temp;Humidity;BMP_temperature;BMP_pressure;BME280_temperature;BME280_humidity;BME280_pressure;Samples;Min_cycle;Max_cycle;Signal;HPM_P1;HPM_P2
2023/07/11 00:02:25;;;;;;;7.90;4.00;;;22.00;85.00;;;;;;5041486;28;20024;-75
2023/07/11 00:04:51;;;;;;;9.13;3.78;;;22.00;84.90;;;;;;5040779;28;20029;-75
2023/07/11 00:07:17;;;;;;;5.75;3.40;;;22.00;84.90;;;;;;5040093;28;20053;-76
2023/07/11 00:09:49;;;;;;;5.63;3.95;;;22.00;84.80;;;;;;5041300;28;20110;-76
2023/07/11 00:12:15;;;;;;;5.80;3.50;;;22.00;84.80;;;;;;5040614;28;20024;-76
2023/07/11 00:14:41;;;;;;;6.00;3.70;;;22.00;84.80;;;;;;5046322;28;20048;-76
2023/07/11 00:17:07;;;;;;;7.43;3.58;;;22.00;84.80;;;;;;5043144;28;20045;-75
2023/07/11 00:19:54;;;;;;;7.13;4.07;;;22.00;84.90;;;;;;5045460;28;20096;-76
2023/07/11 00:22:21;;;;;;;7.18;3.50;;;22.00;84.90;;;;;;5040243;28;20071;-76
2023/07/11 00:24:48;;;;;;;8.23;3.67;;;22.00;85.00;;;;;;5043538;28;20021;-76
2023/07/11 00:27:16;;;;;;;5.63;3.78;;;22.00;85.10;;;;;;5046174;28;20092;-76
2023/07/11 00:29:41;;;;;;;8.02;3.47;;;22.00;85.10;;;;;;5049609;28;20048;-76
2023/07/11 00:32:08;;;;;;;6.75;3.50;;;22.00;85.10;;;;;;5041256;28;20057;-76
2023/07/11 00:34:34;;;;;;;9.65;4.30;;;22.00;85.10;;;;;;5030080;28;20025;-77
2023/07/11 00:37:00;;;;;;;10.38;3.90;;;22.00;85.10;;;;;;5045483;28;20032;-76
2023/07/11 00:39:30;;;;;;;6.18;3.22;;;22.00;85.10;;;;;;5045468;28;20029;-75
2023/07/11 00:41:56;;;;;;;5.53;3.47;;;22.00;85.10;;;;;;5045959;28;20029;-76
2023/07/11 00:44:23;;;;;;;9.38;4.15;;;22.00;85.90;;;;;;5046978;28;20032;-75
2023/07/11 00:46:50;;;;;;;6.75;4.15;;;22.00;85.10;;;;;;5048477;28;20078;-75
2023/07/11 00:49:19;;;;;;;7.80;4.50;;;22.00;85.30;;;;;;5046471;28;20036;-76
2023/07/11 00:52:00;;;;;;;6.60;3.90;;;22.00;85.30;;;;;;5043197;28;20369;-75
2023/07/11 00:54:31;;;;;;;6.97;4.45;;;22.00;85.20;;;;;;5047267;28;20290;-75
2023/07/11 00:56:58;;;;;;;9.38;4.00;;;22.00;85.30;;;;;;5045201;28;20029;-75
2023/07/11 00:59:25;;;;;;;5.93;3.65;;;22.00;85.50;;;;;;5045088;28;20060;-75
2023/07/11 01:02:00;;;;;;;7.38;3.60;;;22.00;85.40;;;;;;5043496;28;20017;-75
2023/07/11 01:04:26;;;;;;;5.03;3.58;;;22.00;85.50;;;;;;5041867;28;20025;-75
2023/07/11 01:06:52;;;;;;;7.90;4.03;;;22.00;85.50;;;;;;5042778;28;20030;-75
2023/07/11 01:09:17;;;;;;;8.23;3.95;;;22.00;85.70;;;;;;5047937;28;20528;-75
2023/07/11 01:11:58;;;;;;;8.15;3.85;;;21.90;85.70;;;;;;5042931;28;20029;-75
2023/07/11 01:14:25;;;;;;;5.57;3.83;;;21.90;85.70;;;;;;5046348;28;20029;-75
2023/07/11 01:16:52;;;;;;;7.43;4.15;;;21.90;85.70;;;;;;5044418;28;20512;-75
2023/07/11 01:19:18;;;;;;;5.55;3.83;;;21.90;85.80;;;;;;5046771;28;20025;-75
2023/07/11 01:21:44;;;;;;;9.07;4.18;;;21.90;85.80;;;;;;5057868;28;20028;-75
2023/07/11 01:24:11;;;;;;;8.45;4.38;;;21.90;85.80;;;;;;5059591;28;20020;-76
2023/07/11 01:26:37;;;;;;;7.07;3.95;;;21.90;85.80;;;;;;5073101;28;20025;-75
2023/07/11 01:29:04;;;;;;;6.07;3.80;;;21.90;85.80;;;;;;5074489;28;20090;-75
2023/07/11 01:31:33;;;;;;;9.40;3.92;;;21.90;85.80;;;;;;5072926;28;20074;-75
2023/07/11 01:34:05;;;;;;;11.73;4.20;;;21.90;85.80;;;;;;5075706;28;20098;-75
2023/07/11 01:36:32;;;;;;;11.30;4.00;;;21.90;86.00;;;;;;5087567;28;20039;-75
2023/07/11 01:38:58;;;;;;;7.53;4.03;;;21.90;86.00;;;;;;5075715;28;20028;-75
2023/07/11 01:41:25;;;;;;;6.93;4.45;;;21.90;86.00;;;;;;5077370;28;20421;-75
2023/07/11 01:43:53;;;;;;;10.07;4.07;;;21.90;86.00;;;;;;5068248;28;20036;-75
2023/07/11 01:46:18;;;;;;;6.70;3.97;;;21.90;86.00;;;;;;5065578;28;20078;-75
2023/07/11 01:48:44;;;;;;;8.77;4.00;;;21.90;86.00;;;;;;5064567;28;20016;-75
2023/07/11 01:51:09;;;;;;;5.63;3.63;;;21.90;86.00;;;;;;5071559;28;20033;-75
2023/07/11 01:53:35;;;;;;;5.55;3.95;;;21.90;86.00;;;;;;5073635;28;20029;-75
2023/07/11 01:56:03;;;;;;;7.97;3.80;;;21.90;86.10;;;;;;5079483;28;20028;-75
2023/07/11 01:58:31;;;;;;;7.10;3.95;;;21.90;86.20;;;;;;5058490;28;20028;-75
2023/07/11 02:00:57;;;;;;;10.77;3.90;;;21.90;86.20;;;;;;5073652;28;20036;-75
2023/07/11 02:03:24;;;;;;;7.43;3.92;;;21.90;86.30;;;;;;5070030;28;20142;-75
2023/07/11 02:05:49;;;;;;;7.70;3.70;;;21.80;86.30;;;;;;5065229;28;20028;-75
2023/07/11 02:08:15;;;;;;;7.07;4.35;;;21.90;86.40;;;;;;5070762;28;20017;-75
2023/07/11 02:10:41;;;;;;;9.57;4.00;;;21.80;86.30;;;;;;5070129;28;20035;-76
2023/07/11 02:13:07;;;;;;;7.57;3.85;;;21.90;86.40;;;;;;5077395;28;20021;-75
2023/07/11 02:15:32;;;;;;;7.95;3.95;;;21.90;86.30;;;;;;5071939;28;20074;-75
2023/07/11 02:17:58;;;;;;;7.25;3.30;;;21.80;86.20;;;;;;5067053;28;20068;-75
2023/07/11 02:20:24;;;;;;;8.80;4.28;;;21.80;86.20;;;;;;5057880;28;20033;-75
2023/07/11 02:22:50;;;;;;;7.35;4.05;;;21.80;86.40;;;;;;5038956;28;20018;-75
2023/07/11 02:25:15;;;;;;;6.03;3.78;;;21.80;86.40;;;;;;5052852;28;20096;-75
2023/07/11 02:27:41;;;;;;;5.10;3.38;;;21.80;86.50;;;;;;5058136;28;20672;-75
2023/07/11 02:30:07;;;;;;;6.80;3.97;;;21.80;86.50;;;;;;5055495;28;20045;-75
2023/07/11 02:32:33;;;;;;;8.07;3.85;;;21.80;86.40;;;;;;5048584;28;20022;-75
2023/07/11 02:34:58;;;;;;;5.38;3.40;;;21.80;86.50;;;;;;5045931;28;20049;-75
2023/07/11 02:37:24;;;;;;;6.65;3.85;;;21.80;86.50;;;;;;5038414;28;20025;-75
2023/07/11 02:39:50;;;;;;;7.53;3.92;;;21.80;86.60;;;;;;5050610;28;20052;-75
2023/07/11 02:42:16;;;;;;;7.90;3.78;;;21.80;86.60;;;;;;5049104;28;20078;-75
2023/07/11 02:44:42;;;;;;;6.97;4.00;;;21.80;86.60;;;;;;5045990;28;20033;-75
2023/07/11 02:47:07;;;;;;;5.68;3.53;;;21.80;86.60;;;;;;5044493;28;20033;-75
2023/07/11 02:49:33;;;;;;;8.68;3.40;;;21.80;86.60;;;;;;5051084;28;20525;-76
2023/07/11 02:51:59;;;;;;;8.55;4.10;;;21.80;86.70;;;;;;5042690;28;20021;-75
2023/07/11 02:54:24;;;;;;;6.22;3.75;;;21.80;86.60;;;;;;5032812;28;20025;-75
2023/07/11 02:56:50;;;;;;;10.25;3.95;;;21.80;86.70;;;;;;5048781;28;20028;-75
2023/07/11 02:59:16;;;;;;;4.50;3.50;;;21.80;86.70;;;;;;5056033;28;20025;-75
2023/07/11 03:01:41;;;;;;;7.18;3.83;;;21.80;86.70;;;;;;5049678;28;20052;-75
2023/07/11 03:04:07;;;;;;;4.97;3.60;;;21.80;86.60;;;;;;5047925;28;20017;-75
2023/07/11 03:06:33;;;;;;;6.43;3.65;;;21.80;86.60;;;;;;5040532;28;20060;-75
2023/07/11 03:08:58;;;;;;;6.13;3.95;;;21.70;86.50;;;;;;5037301;28;20026;-75
2023/07/11 03:11:24;;;;;;;11.68;3.67;;;21.80;86.70;;;;;;5048753;28;20389;-75
2023/07/11 03:13:50;;;;;;;6.38;4.13;;;21.80;86.70;;;;;;5057571;28;20039;-75
2023/07/11 03:16:15;;;;;;;9.35;4.35;;;21.80;86.70;;;;;;5050233;28;20067;-75
2023/07/11 03:18:41;;;;;;;7.00;3.90;;;21.80;86.70;;;;;;5048460;28;20040;-75
2023/07/11 03:21:06;;;;;;;7.57;3.70;;;21.70;86.60;;;;;;5043769;28;20033;-75
2023/07/11 03:23:32;;;;;;;6.78;3.35;;;21.80;86.60;;;;;;5035765;28;20036;-75
2023/07/11 03:25:58;;;;;;;5.55;2.88;;;21.80;86.60;;;;;;5042092;28;20369;-75
2023/07/11 03:28:24;;;;;;;4.22;2.95;;;21.70;86.50;;;;;;5050019;28;20017;-75
2023/07/11 03:30:51;;;;;;;7.80;3.35;;;21.70;86.50;;;;;;5056714;28;20022;-76
2023/07/11 03:33:17;;;;;;;7.15;3.10;;;21.80;86.50;;;;;;5041937;28;20080;-75
2023/07/11 03:35:50;;;;;;;4.97;3.42;;;21.80;86.60;;;;;;5042894;28;20033;-75
2023/07/11 03:38:17;;;;;;;5.70;3.78;;;21.70;86.40;;;;;;5038629;28;20434;-75
2023/07/11 03:40:42;;;;;;;7.15;3.85;;;21.70;86.30;;;;;;5041362;28;20038;-75
2023/07/11 03:43:08;;;;;;;7.80;3.97;;;21.70;86.30;;;;;;5046328;28;20024;-75
2023/07/11 03:45:33;;;;;;;9.73;4.18;;;21.70;86.30;;;;;;5055367;28;20543;-75
2023/07/11 03:47:59;;;;;;;11.27;4.03;;;21.70;86.40;;;;;;5051801;28;20031;-75
2023/07/11 03:50:24;;;;;;;6.20;4.00;;;21.70;86.40;;;;;;5046451;28;20393;-75
2023/07/11 03:52:50;;;;;;;6.32;3.55;;;21.70;86.40;;;;;;5039386;28;20075;-75
2023/07/11 03:55:16;;;;;;;9.95;3.33;;;21.70;86.40;;;;;;5043585;28;20021;-75
2023/07/11 03:57:41;;;;;;;6.70;3.50;;;21.70;86.30;;;;;;5046114;28;20033;-75
2023/07/11 04:00:07;;;;;;;8.30;3.85;;;21.70;86.30;;;;;;5048755;28;20104;-75
2023/07/11 04:02:34;;;;;;;5.50;3.58;;;21.70;86.30;;;;;;5047371;28;20037;-75
2023/07/11 04:04:59;;;;;;;6.20;3.83;;;21.70;86.30;;;;;;5045739;28;20016;-75
2023/07/11 04:07:25;;;;;;;6.07;3.55;;;21.70;86.40;;;;;;5043322;28;20024;-75
2023/07/11 04:09:50;;;;;;;7.18;4.50;;;21.70;86.40;;;;;;5047315;28;20078;-75
2023/07/11 04:12:16;;;;;;;5.90;3.72;;;21.70;86.40;;;;;;5048163;28;20024;-75
2023/07/11 04:14:41;;;;;;;7.35;4.00;;;21.70;86.40;;;;;;5049274;28;20432;-75
2023/07/11 04:17:07;;;;;;;8.07;4.22;;;21.70;86.50;;;;;;5051303;28;20013;-75
2023/07/11 04:19:33;;;;;;;10.30;4.07;;;21.70;86.50;;;;;;5052911;28;20055;-75
2023/07/11 04:21:58;;;;;;;7.00;4.18;;;21.70;86.50;;;;;;5045465;28;20477;-75
2023/07/11 04:24:24;;;;;;;6.72;4.38;;;21.70;86.50;;;;;;5046496;28;20028;-75
2023/07/11 04:26:50;;;;;;;9.40;5.82;;;21.70;86.60;;;;;;5044740;28;20100;-75
2023/07/11 04:29:16;;;;;;;6.57;3.80;;;21.70;86.60;;;;;;5042475;28;20541;-75
2023/07/11 04:31:41;;;;;;;7.20;4.40;;;21.70;86.60;;;;;;5048726;28;20104;-75
2023/07/11 04:34:07;;;;;;;7.60;4.65;;;21.70;86.70;;;;;;5046031;28;20029;-75
2023/07/11 04:36:32;;;;;;;11.43;4.45;;;21.70;86.80;;;;;;5047453;28;20075;-75
2023/07/11 04:38:58;;;;;;;11.63;4.05;;;21.70;86.80;;;;;;5049656;28;20100;-75
2023/07/11 04:41:23;;;;;;;4.75;3.55;;;21.70;86.80;;;;;;5046896;28;20032;-75
2023/07/11 04:43:49;;;;;;;7.78;4.20;;;21.70;87.00;;;;;;5048519;28;20047;-75
2023/07/11 04:46:14;;;;;;;7.93;3.95;;;21.70;87.00;;;;;;5023991;28;20017;-75
2023/07/11 04:48:40;;;;;;;7.90;4.10;;;21.70;87.00;;;;;;5044265;28;20026;-75
2023/07/11 04:51:08;;;;;;;15.30;4.60;;;21.70;87.00;;;;;;5040628;28;20441;-75
2023/07/11 04:53:34;;;;;;;11.25;4.55;;;21.70;87.00;;;;;;5045170;28;20086;-75
2023/07/11 04:56:03;;;;;;;6.07;3.90;;;21.70;87.00;;;;;;5043618;28;20109;-75
2023/07/11 04:58:30;;;;;;;5.82;3.95;;;21.70;87.00;;;;;;5039399;28;20581;-75
2023/07/11 05:01:07;;;;;;;12.15;4.10;;;21.70;87.20;;;;;;5042244;28;20021;-75
2023/07/11 05:03:33;;;;;;;7.30;4.13;;;21.70;87.20;;;;;;5042254;28;20100;-75
2023/07/11 05:05:59;;;;;;;7.57;4.32;;;21.70;87.20;;;;;;5043327;28;20108;-75
2023/07/11 05:08:24;;;;;;;11.27;4.60;;;21.70;87.30;;;;;;5045271;28;20029;-75
2023/07/11 05:11:01;;;;;;;12.90;4.30;;;21.70;87.30;;;;;;5046626;28;20090;-75
2023/07/11 05:13:28;;;;;;;7.32;4.03;;;21.70;87.40;;;;;;5044135;28;20116;-75
2023/07/11 05:16:02;;;;;;;8.75;4.45;;;21.70;87.50;;;;;;5039750;28;20033;-75
2023/07/11 05:18:27;;;;;;;11.02;4.43;;;21.70;87.50;;;;;;5039294;28;20091;-76
2023/07/11 05:20:55;;;;;;;10.88;4.47;;;21.70;87.50;;;;;;5037249;28;20029;-76
2023/07/11 05:23:26;;;;;;;8.95;4.20;;;21.70;87.70;;;;;;5042930;28;20042;-76
2023/07/11 05:25:52;;;;;;;15.00;4.43;;;21.70;87.50;;;;;;5047816;28;20021;-76
2023/07/11 05:28:17;;;;;;;6.32;3.85;;;21.70;87.50;;;;;;5039448;28;20359;-76
2023/07/11 05:30:43;;;;;;;7.65;4.00;;;21.70;87.30;;;;;;5036334;28;20036;-76
2023/07/11 05:33:09;;;;;;;5.95;3.53;;;21.80;87.30;;;;;;5038824;28;20060;-76
2023/07/11 05:35:46;;;;;;;12.50;4.47;;;21.80;87.40;;;;;;5036132;28;20100;-76
2023/07/11 05:38:15;;;;;;;8.20;3.97;;;21.80;87.40;;;;;;5038951;28;20446;-76
2023/07/11 05:40:41;;;;;;;8.50;4.13;;;21.80;87.60;;;;;;5038039;28;20108;-76
2023/07/11 05:43:07;;;;;;;9.27;4.10;;;21.80;87.50;;;;;;5040687;28;20018;-76
2023/07/11 05:45:33;;;;;;;7.53;4.07;;;21.80;87.60;;;;;;5039370;28;20509;-76
2023/07/11 05:47:59;;;;;;;10.93;3.78;;;21.80;88.40;;;;;;5039166;28;20614;-76
2023/07/11 05:50:25;;;;;;;6.20;4.43;;;21.90;87.90;;;;;;5035987;28;20355;-76
2023/07/11 05:52:51;;;;;;;7.47;3.40;;;21.90;88.00;;;;;;5031839;28;20079;-76
2023/07/11 05:55:17;;;;;;;8.02;3.75;;;21.90;87.80;;;;;;5037333;28;20036;-76
2023/07/11 05:57:42;;;;;;;8.80;4.18;;;21.90;87.90;;;;;;5043464;28;20048;-76
2023/07/11 06:00:09;;;;;;;8.40;4.00;;;21.90;87.90;;;;;;5041023;28;20025;-76
2023/07/11 06:02:36;;;;;;;16.33;4.38;;;21.90;88.00;;;;;;5037749;28;20108;-76
2023/07/11 06:05:01;;;;;;;6.13;3.75;;;21.90;88.20;;;;;;5036916;28;20014;-77
2023/07/11 06:07:28;;;;;;;12.25;4.63;;;21.90;88.20;;;;;;5040234;28;20024;-77
2023/07/11 06:09:55;;;;;;;12.68;3.90;;;21.90;88.30;;;;;;5038691;28;20021;-76
2023/07/11 06:12:21;;;;;;;8.48;4.15;;;21.90;88.30;;;;;;5038591;28;20028;-76
2023/07/11 06:14:49;;;;;;;9.65;4.15;;;21.90;87.80;;;;;;5048329;28;20429;-76
2023/07/11 06:17:15;;;;;;;9.43;4.50;;;21.90;87.60;;;;;;5024206;28;20116;-77
2023/07/11 06:19:40;;;;;;;9.20;4.25;;;22.00;87.60;;;;;;5037062;28;20087;-76
2023/07/11 06:22:06;;;;;;;10.98;4.40;;;22.00;87.50;;;;;;5038083;28;20025;-77
2023/07/11 06:24:32;;;;;;;11.43;4.15;;;22.00;87.40;;;;;;5039916;28;20110;-77
2023/07/11 06:26:57;;;;;;;12.45;4.40;;;22.00;87.50;;;;;;5043020;28;20017;-77
2023/07/11 06:29:23;;;;;;;11.93;4.07;;;22.00;87.40;;;;;;5040880;28;20020;-77
2023/07/11 06:31:50;;;;;;;10.57;4.50;;;22.00;87.30;;;;;;5044298;28;20024;-77
2023/07/11 06:34:15;;;;;;;13.05;5.05;;;22.00;87.30;;;;;;5039746;28;20017;-77
2023/07/11 06:36:41;;;;;;;11.48;3.83;;;22.00;87.20;;;;;;5037804;28;20023;-77
2023/07/11 06:39:07;;;;;;;9.93;3.58;;;22.00;87.20;;;;;;5040971;28;20553;-77
2023/07/11 06:41:32;;;;;;;8.30;4.75;;;22.00;87.20;;;;;;5047018;28;20025;-77
2023/07/11 06:43:58;;;;;;;7.97;4.10;;;22.00;87.20;;;;;;5044702;28;20029;-77
2023/07/11 06:46:23;;;;;;;16.45;4.30;;;22.00;87.20;;;;;;5040972;28;20017;-77
2023/07/11 06:48:49;;;;;;;7.03;4.15;;;22.00;87.20;;;;;;5044661;28;20100;-77
2023/07/11 06:51:15;;;;;;;10.15;4.20;;;22.00;87.10;;;;;;5038394;28;20111;-77
2023/07/11 06:53:40;;;;;;;9.52;4.20;;;22.00;87.00;;;;;;5040475;28;20029;-77
2023/07/11 06:56:06;;;;;;;10.43;4.63;;;22.00;87.00;;;;;;5043408;28;20025;-77
2023/07/11 06:58:32;;;;;;;8.20;4.10;;;22.00;87.00;;;;;;5043676;28;20196;-77
2023/07/11 07:01:04;;;;;;;6.32;4.18;;;22.00;87.00;;;;;;5043778;28;20024;-78
2023/07/11 07:03:31;;;;;;;7.97;3.53;;;22.00;87.00;;;;;;5041466;28;20481;-77
2023/07/11 07:06:06;;;;;;;12.75;4.90;;;22.00;87.00;;;;;;5042236;28;20091;-78
2023/07/11 07:08:32;;;;;;;11.35;3.97;;;22.00;87.00;;;;;;5042356;28;20074;-78
2023/07/11 07:10:58;;;;;;;10.10;4.35;;;22.10;86.90;;;;;;5029745;28;20025;-79
2023/07/11 07:13:24;;;;;;;10.18;5.18;;;22.10;86.90;;;;;;5040726;28;20040;-71
2023/07/11 07:15:56;;;;;;;9.68;4.28;;;22.10;87.60;;;;;;5042800;28;20026;-83
2023/07/11 07:18:22;;;;;;;7.00;4.40;;;22.20;87.10;;;;;;5026356;28;20048;-77
2023/07/11 07:20:50;;;;;;;10.52;4.05;;;22.20;85.90;;;;;;5038764;28;20112;-77
2023/07/11 07:23:15;;;;;;;10.43;3.80;;;22.20;87.10;;;;;;5042364;28;20106;-78
2023/07/11 07:25:49;;;;;;;9.27;4.57;;;22.20;86.50;;;;;;5045043;28;20092;-77
2023/07/11 07:28:14;;;;;;;9.60;4.97;;;22.10;86.60;;;;;;5045394;28;20021;-77
2023/07/11 07:30:48;;;;;;;11.68;4.38;;;22.10;86.60;;;;;;5038066;28;20104;-77
2023/07/11 07:33:14;;;;;;;14.48;4.55;;;22.10;86.60;;;;;;5043665;28;20104;-78
2023/07/11 07:35:41;;;;;;;7.93;4.28;;;22.10;86.60;;;;;;5042979;28;20021;-78
2023/07/11 07:38:07;;;;;;;8.52;4.53;;;22.10;86.50;;;;;;5041673;28;20025;-78
2023/07/11 07:40:32;;;;;;;11.73;4.65;;;22.10;86.50;;;;;;5042057;28;20105;-78
2023/07/11 07:42:58;;;;;;;8.07;4.68;;;22.10;86.40;;;;;;5042775;28;20021;-78
2023/07/11 07:45:24;;;;;;;17.80;4.40;;;22.10;86.40;;;;;;5038794;28;20417;-78
2023/07/11 07:47:49;;;;;;;6.78;4.03;;;22.10;86.40;;;;;;5043229;28;20181;-78
2023/07/11 07:50:15;;;;;;;8.32;4.75;;;22.10;86.40;;;;;;5041364;28;20021;-78
2023/07/11 07:52:41;;;;;;;17.75;5.22;;;22.10;86.40;;;;;;5044348;28;20483;-78
2023/07/11 07:55:07;;;;;;;14.02;4.65;;;22.10;86.30;;;;;;5042220;28;20135;-78
2023/07/11 07:57:33;;;;;;;12.57;4.40;;;22.10;86.40;;;;;;5046267;28;20025;-79
2023/07/11 07:59:59;;;;;;;9.77;4.68;;;22.20;86.30;;;;;;5052355;28;20021;-78
2023/07/11 08:02:24;;;;;;;9.18;4.43;;;22.10;86.30;;;;;;5027913;28;20033;-78
2023/07/11 08:04:50;;;;;;;8.95;4.45;;;22.10;86.20;;;;;;5046069;28;20033;-78
2023/07/11 08:07:16;;;;;;;10.50;4.93;;;22.20;86.40;;;;;;5041840;28;20021;-80
2023/07/11 08:09:42;;;;;;;11.82;5.53;;;22.10;86.30;;;;;;5047230;28;20028;-78
2023/07/11 08:12:09;;;;;;;10.20;5.38;;;22.20;86.30;;;;;;5043922;28;20056;-78
2023/07/11 08:14:39;;;;;;;10.13;4.63;;;22.20;86.30;;;;;;5040037;28;20474;-79
2023/07/11 08:17:05;;;;;;;;;;;22.20;86.30;;;;;;5039340;28;20028;-78
2023/07/11 08:19:31;;;;;;;15.23;5.75;;;22.20;86.10;;;;;;5039986;28;19995;-79
2023/07/11 08:21:56;;;;;;;9.93;5.13;;;22.20;86.20;;;;;;5062157;28;20057;-79
2023/07/11 08:24:22;;;;;;;12.00;5.07;;;22.20;86.10;;;;;;5041412;28;20052;-79
2023/07/11 08:26:48;;;;;;;10.15;5.47;;;22.20;86.20;;;;;;5058885;28;20025;-79
2023/07/11 08:29:13;;;;;;;22.58;5.35;;;22.20;86.40;;;;;;5066243;28;20657;-78
2023/07/11 08:31:39;;;;;;;10.20;5.78;;;22.20;86.40;;;;;;5057343;28;20021;-79
2023/07/11 08:34:05;;;;;;;11.52;5.40;;;22.20;86.60;;;;;;5057744;28;20058;-78
2023/07/11 08:36:31;;;;;;;10.60;5.65;;;22.20;86.60;;;;;;5061467;28;20033;-79
2023/07/11 08:38:56;;;;;;;18.40;6.00;;;22.20;86.40;;;;;;5061162;28;20029;-78
2023/07/11 08:41:25;;;;;;;13.82;5.55;;;22.20;86.50;;;;;;5057292;28;20478;-79
2023/07/11 08:43:56;;;;;;;11.05;5.45;;;22.20;86.40;;;;;;5060800;28;20020;-79
2023/07/11 08:46:24;;;;;;;11.27;5.43;;;22.20;86.40;;;;;;5062141;28;20016;-79
2023/07/11 08:48:58;;;;;;;13.07;6.05;;;22.20;86.30;;;;;;5065551;28;21478;-79
2023/07/11 08:51:43;;;;;;;20.77;5.75;;;22.20;86.40;;;;;;5058535;28;20020;-79
2023/07/11 08:54:28;;;;;;;7.80;5.22;;;22.20;86.50;;;;;;5049209;28;20017;-79
2023/07/11 08:56:56;;;;;;;13.35;5.82;;;22.20;86.40;;;;;;5057228;28;20021;-79
2023/07/11 08:59:37;;;;;;;9.18;5.57;;;22.20;86.40;;;;;;5059998;28;20025;-78
2023/07/11 09:02:09;;;;;;;11.35;6.40;;;22.20;86.40;;;;;;5061317;28;20031;-79
2023/07/11 09:04:48;;;;;;;9.48;5.25;;;22.20;86.40;;;;;;5063507;28;20048;-79
2023/07/11 09:07:38;;;;;;;12.75;6.68;;;22.20;86.50;;;;;;5059694;28;20362;-80
2023/07/11 09:10:20;;;;;;;8.57;5.50;;;22.20;86.60;;;;;;5051153;28;20402;-80
2023/07/11 09:12:55;;;;;;;12.15;5.13;;;22.20;86.60;;;;;;5061626;28;20266;-79
2023/07/11 09:15:30;;;;;;;8.55;5.45;;;22.20;86.80;;;;;;5066883;28;20370;-78
2023/07/11 09:18:24;;;;;;;11.45;5.55;;;22.20;86.90;;;;;;5066832;28;20020;-79
2023/07/11 09:21:06;;;;;;;9.82;5.30;;;22.20;87.00;;;;;;5037808;28;20045;-78
2023/07/11 09:23:50;;;;;;;10.85;5.47;;;22.20;87.10;;;;;;5027889;28;20029;-79
2023/07/11 09:26:30;;;;;;;11.93;5.15;;;22.20;87.40;;;;;;5048957;28;20025;-80
2023/07/11 09:29:06;;;;;;;18.13;5.68;;;22.80;90.80;;;;;;5039181;28;20055;-79
2023/07/11 09:31:43;;;;;;;14.38;6.03;;;23.30;88.50;;;;;;5045775;28;20029;-81
2023/07/11 09:34:36;;;;;;;8.85;5.70;;;23.60;89.70;;;;;;5043009;28;20118;-80
2023/07/11 09:37:22;;;;;;;7.78;5.78;;;23.70;90.10;;;;;;5047679;28;20035;-79
2023/07/11 09:40:12;;;;;;;12.52;5.30;;;23.80;90.20;;;;;;5026650;28;20476;-81
2023/07/11 09:42:47;;;;;;;11.85;5.22;;;23.90;90.10;;;;;;5041032;28;20028;-80
2023/07/11 09:45:18;;;;;;;9.90;5.65;;;24.00;89.40;;;;;;5038211;28;20022;-79
2023/07/11 09:48:04;;;;;;;11.75;6.10;;;24.00;89.00;;;;;;5041680;28;20017;-79
2023/07/11 09:50:58;;;;;;;8.93;5.60;;;24.00;89.20;;;;;;5044492;28;20158;-80
2023/07/11 09:53:26;;;;;;;10.93;5.45;;;24.00;90.10;;;;;;5037738;28;20029;-79
2023/07/11 09:55:58;;;;;;;7.00;4.82;;;24.20;88.10;;;;;;5040573;28;20032;-80
2023/07/11 09:58:32;;;;;;;15.35;6.22;;;24.20;87.70;;;;;;5042480;28;20493;-78
2023/07/11 10:01:03;;;;;;;16.42;5.47;;;24.20;89.00;;;;;;5045018;28;20588;-79
2023/07/11 10:03:34;;;;;;;12.00;5.70;;;24.20;90.20;;;;;;5040411;28;20079;-78
2023/07/11 10:06:01;;;;;;;12.23;5.70;;;24.20;90.00;;;;;;5042257;28;20650;-79
2023/07/11 10:08:35;;;;;;;9.85;6.03;;;24.20;90.00;;;;;;5040659;28;20469;-79
2023/07/11 10:11:11;;;;;;;16.45;5.50;;;24.20;89.70;;;;;;5026464;28;20056;-78
2023/07/11 10:13:40;;;;;;;9.55;5.40;;;24.40;88.60;;;;;;5042282;28;20312;-79
2023/07/11 10:16:05;;;;;;;9.20;5.97;;;24.40;88.60;;;;;;5024499;28;20489;-79
2023/07/11 10:18:34;;;;;;;15.27;6.63;;;24.40;87.70;;;;;;5041346;28;20037;-79
2023/07/11 10:21:17;;;;;;;12.18;6.15;;;24.40;87.50;;;;;;5042041;28;20633;-79
2023/07/11 10:23:45;;;;;;;11.57;5.68;;;24.40;88.60;;;;;;5020326;28;20390;-79
2023/07/11 10:26:11;;;;;;;8.32;5.43;;;24.60;87.80;;;;;;5045524;28;20013;-79
2023/07/11 10:28:44;;;;;;;10.07;5.30;;;24.60;88.50;;;;;;5025894;28;20025;-78
2023/07/11 10:31:17;;;;;;;6.75;5.07;;;24.60;88.30;;;;;;5030752;28;20025;-79
2023/07/11 10:33:52;;;;;;;11.15;5.22;;;24.60;87.20;;;;;;5040904;28;20564;-80
2023/07/11 10:36:27;;;;;;;12.05;5.10;;;24.70;86.10;;;;;;5029985;28;20428;-79
2023/07/11 10:39:12;;;;;;;10.13;4.38;;;24.80;85.50;;;;;;5022903;28;20421;-79
2023/07/11 10:41:48;;;;;;;8.32;5.20;;;24.80;84.90;;;;;;5043452;28;20025;-79
2023/07/11 10:44:32;;;;;;;9.55;5.32;;;25.00;84.30;;;;;;5046306;28;20029;-79
2023/07/11 10:46:58;;;;;;;7.53;5.28;;;25.00;84.00;;;;;;5042485;28;20029;-80
2023/07/11 10:49:36;;;;;;;7.60;5.00;;;25.00;85.70;;;;;;5030461;28;20028;-79
2023/07/11 10:52:21;;;;;;;13.63;5.25;;;25.10;85.20;;;;;;5041852;28;20076;-79
2023/07/11 10:55:05;;;;;;;16.73;5.13;;;25.10;85.00;;;;;;5045620;28;20013;-78
2023/07/11 10:57:50;;;;;;;12.38;5.45;;;24.90;85.40;;;;;;5043003;28;20025;-79
2023/07/11 11:00:22;;;;;;;9.73;4.85;;;24.90;86.00;;;;;;5039754;28;20052;-79
2023/07/11 11:03:25;;;;;;;11.43;5.03;;;25.00;86.10;;;;;;5021248;28;20425;-79
2023/07/11 11:05:56;;;;;;;20.88;5.57;;;25.10;86.70;;;;;;5040387;28;20025;-75
2023/07/11 11:08:48;;;;;;;10.38;5.20;;;25.10;86.20;;;;;;5038320;28;20097;-79
2023/07/11 11:11:34;;;;;;;6.78;4.53;;;24.70;87.40;;;;;;5017198;28;20032;-81
2023/07/11 11:14:19;;;;;;;7.05;4.00;;;24.20;89.00;;;;;;5034164;28;20025;-80
2023/07/11 11:16:45;;;;;;;8.20;5.30;;;23.90;90.00;;;;;;5034966;28;20021;-78
2023/07/11 11:19:25;;;;;;;11.40;5.18;;;23.80;90.30;;;;;;5042234;28;20078;-79
2023/07/11 11:22:10;;;;;;;9.00;4.53;;;23.60;90.30;;;;;;5039001;28;20029;-78
2023/07/11 11:25:00;;;;;;;14.15;5.55;;;23.60;90.30;;;;;;5038975;28;20115;-79
2023/07/11 11:27:44;;;;;;;8.23;5.72;;;23.50;90.40;;;;;;5039853;28;20441;-78
2023/07/11 11:30:09;;;;;;;16.90;5.72;;;23.50;90.40;;;;;;5037472;28;20093;-78
2023/07/11 11:33:11;;;;;;;9.07;5.18;;;23.40;90.40;;;;;;5038859;28;20113;-79
2023/07/11 11:36:17;;;;;;;7.28;4.47;;;23.40;90.40;;;;;;5042928;28;20505;-81
2023/07/11 11:38:56;;;;;;;8.63;4.93;;;23.40;90.40;;;;;;4925605;29;20155;-80
2023/07/11 11:41:37;;;;;;;11.35;3.63;;;23.40;90.40;;;;;;4931748;29;20088;-80
2023/07/11 11:44:14;;;;;;;15.45;6.30;;;23.30;90.30;;;;;;4932179;29;20094;-78
2023/07/11 11:46:40;;;;;;;9.80;5.40;;;23.30;90.30;;;;;;4933683;29;20032;-79
2023/07/11 11:49:09;;;;;;;10.15;5.78;;;23.30;90.50;;;;;;4914649;29;20024;-79
2023/07/11 11:51:35;;;;;;;9.68;5.40;;;23.30;90.40;;;;;;4946272;29;20028;-84
2023/07/11 11:54:16;;;;;;;6.93;3.63;;;23.30;90.40;;;;;;4914268;29;20031;-81
2023/07/11 11:56:49;;;;;;;12.95;5.20;;;23.30;90.40;;;;;;4929721;29;20039;-81
2023/07/11 11:59:24;;;;;;;13.80;4.63;;;23.20;90.30;;;;;;4932501;29;20067;-80
2023/07/11 12:01:53;;;;;;;10.88;5.53;;;23.20;90.30;;;;;;4932230;29;20087;-81
2023/07/11 12:04:27;;;;;;;5.85;4.22;;;23.20;90.30;;;;;;4932862;29;20083;-81
2023/07/11 12:06:56;;;;;;;11.82;5.13;;;23.20;90.30;;;;;;4927696;29;20063;-80
2023/07/11 12:09:39;;;;;;;10.27;5.47;;;23.20;90.30;;;;;;4964513;28;20489;-81
2023/07/11 12:12:14;;;;;;;9.07;3.88;;;23.20;90.30;;;;;;5041133;28;20380;-82
2023/07/11 12:14:59;;;;;;;7.57;4.50;;;23.20;90.30;;;;;;5020173;28;20029;-80
2023/07/11 12:17:31;;;;;;;12.32;5.55;;;23.20;90.30;;;;;;5039852;28;20501;-79
2023/07/11 12:20:20;;;;;;;3.83;2.45;;;23.20;90.30;;;;;;5049677;28;20026;-81
2023/07/11 12:22:46;;;;;;;8.50;5.05;;;23.20;90.40;;;;;;5050748;28;20037;-82
2023/07/11 12:25:20;;;;;;;7.90;5.15;;;23.20;90.30;;;;;;5062073;28;20024;-83
2023/07/11 12:27:58;;;;;;;13.90;5.75;;;23.20;90.40;;;;;;5063155;28;20051;-80
2023/07/11 12:30:27;;;;;;;16.00;5.82;;;23.10;90.20;;;;;;5063453;28;20028;-80
2023/07/11 12:32:55;;;;;;;8.05;5.55;;;23.20;90.30;;;;;;5060915;28;20016;-80
2023/07/11 12:35:25;;;;;;;11.82;5.32;;;23.10;90.30;;;;;;5065797;28;20048;-80
2023/07/11 12:38:00;;;;;;;14.70;5.32;;;23.10;90.50;;;;;;5060554;28;20016;-80
2023/07/11 12:40:45;;;;;;;14.13;5.85;;;23.10;90.30;;;;;;5060572;28;20430;-79
2023/07/11 12:43:20;;;;;;;11.25;5.85;;;23.10;90.50;;;;;;5063037;28;20063;-79
2023/07/11 12:45:52;;;;;;;11.07;5.90;;;23.00;90.30;;;;;;5062563;28;20108;-79
2023/07/11 12:48:22;;;;;;;19.10;6.82;;;23.00;90.50;;;;;;5058914;28;20017;-78
2023/07/11 12:50:54;;;;;;;12.48;5.30;;;23.00;90.60;;;;;;5061537;28;20416;-79
2023/07/11 12:53:21;;;;;;;9.20;5.90;;;23.00;90.50;;;;;;5063008;28;20048;-78
2023/07/11 12:55:50;;;;;;;10.60;6.22;;;23.00;90.50;;;;;;5063506;28;20084;-80
2023/07/11 12:58:24;;;;;;;13.90;5.45;;;23.00;90.60;;;;;;5061472;28;20473;-80